sensor_id;sensor_type;location;lat;lon;timestamp;pressure;altitude;pressure_sealevel;temperature;humidity
1472;BME280;963;42.644;23.336;2023-07-31T00:01:05;93847.84;;;23.25;65.41
1472;BME280;963;42.644;23.336;2023-07-31T00:03:30;93842.75;;;23.27;65.84
1472;BME280;963;42.644;23.336;2023-07-31T00:05:55;93846.66;;;23.26;66.43
1472;BME280;963;42.644;23.336;2023-07-31T00:08:21;93839.47;;;23.23;66.51
1472;BME280;963;42.644;23.336;2023-07-31T00:10:46;93854.69;;;23.26;66.29
1472;BME280;963;42.644;23.336;2023-07-31T00:13:12;93847.84;;;23.25;66.15
1472;BME280;963;42.644;23.336;2023-07-31T00:15:37;93845.59;;;23.33;66.10
1472;BME280;963;42.644;23.336;2023-07-31T00:18:02;93840.09;;;23.27;66.34
1472;BME280;963;42.644;23.336;2023-07-31T00:20:28;93844.53;;;23.12;67.36
1472;BME280;963;42.644;23.336;2023-07-31T00:22:53;93843.34;;;23.13;67.82
1472;BME280;963;42.644;23.336;2023-07-31T00:25:18;93839.63;;;23.20;67.47
1472;BME280;963;42.644;23.336;2023-07-31T00:27:44;93839.78;;;23.16;67.72
1472;BME280;963;42.644;23.336;2023-07-31T00:30:11;93843.50;;;23.10;67.85
1472;BME280;963;42.644;23.336;2023-07-31T00:32:37;93818.25;;;22.98;68.38
1472;BME280;963;42.644;23.336;2023-07-31T00:35:02;93816.16;;;23.02;68.98
1472;BME280;963;42.644;23.336;2023-07-31T00:37:28;93835.53;;;22.88;69.09
1472;BME280;963;42.644;23.336;2023-07-31T00:39:53;93819.75;;;22.99;69.78
1472;BME280;963;42.644;23.336;2023-07-31T00:42:19;93816.63;;;23.00;69.60
1472;BME280;963;42.644;23.336;2023-07-31T00:44:44;93797.06;;;22.91;70.15
1472;BME280;963;42.644;23.336;2023-07-31T00:47:10;93802.00;;;22.92;70.30
1472;BME280;963;42.644;23.336;2023-07-31T00:49:35;93815.69;;;22.85;70.35
1472;BME280;963;42.644;23.336;2023-07-31T00:52:00;93818.97;;;22.89;70.26
1472;BME280;963;42.644;23.336;2023-07-31T00:54:27;93821.22;;;22.91;70.24
1472;BME280;963;42.644;23.336;2023-07-31T00:56:54;93812.88;;;22.89;70.31
1472;BME280;963;42.644;23.336;2023-07-31T00:59:19;93816.44;;;22.86;70.43
1472;BME280;963;42.644;23.336;2023-07-31T01:01:45;93820.00;;;22.83;70.56
1472;BME280;963;42.644;23.336;2023-07-31T01:04:11;93813.09;;;22.72;70.91
1472;BME280;963;42.644;23.336;2023-07-31T01:09:12;93807.00;;;22.72;70.74
1472;BME280;963;42.644;23.336;2023-07-31T01:11:56;93820.53;;;22.68;71.38
1472;BME280;963;42.644;23.336;2023-07-31T01:14:22;93808.28;;;22.58;71.80
1472;BME280;963;42.644;23.336;2023-07-31T01:16:47;93794.28;;;22.63;71.26
1472;BME280;963;42.644;23.336;2023-07-31T01:19:14;93806.50;;;22.64;72.21
1472;BME280;963;42.644;23.336;2023-07-31T01:22:20;93798.16;;;22.62;72.00
1472;BME280;963;42.644;23.336;2023-07-31T01:27:59;93807.66;;;22.54;72.87
1472;BME280;963;42.644;23.336;2023-07-31T01:30:29;93807.53;;;22.58;72.94
1472;BME280;963;42.644;23.336;2023-07-31T01:32:59;93817.19;;;22.55;73.14
1472;BME280;963;42.644;23.336;2023-07-31T01:35:24;93810.72;;;22.34;73.86
1472;BME280;963;42.644;23.336;2023-07-31T01:37:52;93796.03;;;22.48;73.00
1472;BME280;963;42.644;23.336;2023-07-31T01:40:19;93797.78;;;22.42;73.88
1472;BME280;963;42.644;23.336;2023-07-31T01:42:44;93798.97;;;22.41;73.84
1472;BME280;963;42.644;23.336;2023-07-31T01:45:10;93804.34;;;22.41;73.93
1472;BME280;963;42.644;23.336;2023-07-31T01:47:35;93789.28;;;22.34;73.98
1472;BME280;963;42.644;23.336;2023-07-31T01:50:01;93792.84;;;22.31;74.62
1472;BME280;963;42.644;23.336;2023-07-31T01:52:26;93774.75;;;22.23;75.16
1472;BME280;963;42.644;23.336;2023-07-31T01:54:52;93805.59;;;22.27;75.06
1472;BME280;963;42.644;23.336;2023-07-31T01:57:17;93793.66;;;22.19;75.20
1472;BME280;963;42.644;23.336;2023-07-31T01:59:42;93801.88;;;22.25;75.73
1472;BME280;963;42.644;23.336;2023-07-31T02:02:08;93799.16;;;22.15;76.00
1472;BME280;963;42.644;23.336;2023-07-31T02:04:33;93783.34;;;22.08;76.20
1472;BME280;963;42.644;23.336;2023-07-31T02:06:59;93794.94;;;22.05;76.50
1472;BME280;963;42.644;23.336;2023-07-31T02:09:24;93798.25;;;22.19;76.47
1472;BME280;963;42.644;23.336;2023-07-31T02:11:50;93807.13;;;22.06;76.78
1472;BME280;963;42.644;23.336;2023-07-31T02:14:15;93814.34;;;22.19;76.78
1472;BME280;963;42.644;23.336;2023-07-31T02:16:41;93808.41;;;22.24;76.08
1472;BME280;963;42.644;23.336;2023-07-31T02:19:07;93813.34;;;22.25;76.44
1472;BME280;963;42.644;23.336;2023-07-31T02:21:33;93811.22;;;22.20;76.40
1472;BME280;963;42.644;23.336;2023-07-31T02:23:58;93802.75;;;22.22;76.45
1472;BME280;963;42.644;23.336;2023-07-31T02:26:24;93816.22;;;22.31;76.23
1472;BME280;963;42.644;23.336;2023-07-31T02:28:49;93812.78;;;22.30;76.15
1472;BME280;963;42.644;23.336;2023-07-31T02:31:15;93797.69;;;22.24;76.23
1472;BME280;963;42.644;23.336;2023-07-31T02:33:40;93803.88;;;22.33;76.63
1472;BME280;963;42.644;23.336;2023-07-31T02:36:05;93814.59;;;22.33;76.48
1472;BME280;963;42.644;23.336;2023-07-31T02:38:31;93802.47;;;22.29;76.56
1472;BME280;963;42.644;23.336;2023-07-31T02:40:56;93819.50;;;22.35;75.93
1472;BME280;963;42.644;23.336;2023-07-31T02:43:21;93809.09;;;22.37;76.09
1472;BME280;963;42.644;23.336;2023-07-31T02:45:51;93809.97;;;22.34;76.02
1472;BME280;963;42.644;23.336;2023-07-31T02:48:17;93803.78;;;22.24;76.16
1472;BME280;963;42.644;23.336;2023-07-31T02:50:42;93815.94;;;22.38;75.77
1472;BME280;963;42.644;23.336;2023-07-31T02:53:08;93817.75;;;22.41;76.03
1472;BME280;963;42.644;23.336;2023-07-31T02:55:33;93823.53;;;22.39;75.49
1472;BME280;963;42.644;23.336;2023-07-31T02:57:59;93829.50;;;22.43;75.00
1472;BME280;963;42.644;23.336;2023-07-31T03:00:24;93836.34;;;22.35;75.59
1472;BME280;963;42.644;23.336;2023-07-31T03:02:50;93831.28;;;22.37;74.97
1472;BME280;963;42.644;23.336;2023-07-31T03:05:15;93826.06;;;22.34;75.07
1472;BME280;963;42.644;23.336;2023-07-31T03:07:40;93825.41;;;22.30;74.56
1472;BME280;963;42.644;23.336;2023-07-31T03:10:06;93820.88;;;22.18;75.32
1472;BME280;963;42.644;23.336;2023-07-31T03:12:32;93839.25;;;22.28;75.05
1472;BME280;963;42.644;23.336;2023-07-31T03:14:57;93838.56;;;22.37;75.42
1472;BME280;963;42.644;23.336;2023-07-31T03:17:22;93841.88;;;22.41;75.05
1472;BME280;963;42.644;23.336;2023-07-31T03:19:48;93845.16;;;22.45;75.46
1472;BME280;963;42.644;23.336;2023-07-31T03:22:13;93831.72;;;22.36;75.34
1472;BME280;963;42.644;23.336;2023-07-31T03:24:39;93852.31;;;22.48;75.20
1472;BME280;963;42.644;23.336;2023-07-31T03:27:04;93851.13;;;22.49;75.05
1472;BME280;963;42.644;23.336;2023-07-31T03:29:30;93844.50;;;22.32;75.04
1472;BME280;963;42.644;23.336;2023-07-31T03:31:55;93833.50;;;22.39;75.13
1472;BME280;963;42.644;23.336;2023-07-31T03:34:21;93835.63;;;22.44;74.79
1472;BME280;963;42.644;23.336;2023-07-31T03:36:46;93851.56;;;22.48;75.10
1472;BME280;963;42.644;23.336;2023-07-31T03:39:11;93848.44;;;22.49;74.86
1472;BME280;963;42.644;23.336;2023-07-31T03:41:37;93850.56;;;22.54;74.11
1472;BME280;963;42.644;23.336;2023-07-31T03:44:02;93858.88;;;22.47;74.28
1472;BME280;963;42.644;23.336;2023-07-31T03:46:28;93865.53;;;22.42;74.72
1472;BME280;963;42.644;23.336;2023-07-31T03:48:53;93848.09;;;22.38;74.67
1472;BME280;963;42.644;23.336;2023-07-31T03:51:19;93866.56;;;22.36;73.84
1472;BME280;963;42.644;23.336;2023-07-31T03:53:44;93857.16;;;22.31;74.16
1472;BME280;963;42.644;23.336;2023-07-31T03:56:10;93853.59;;;22.34;74.34
1472;BME280;963;42.644;23.336;2023-07-31T03:58:36;93866.13;;;22.37;74.10
1472;BME280;963;42.644;23.336;2023-07-31T04:01:02;93875.34;;;22.36;74.03
1472;BME280;963;42.644;23.336;2023-07-31T04:03:28;93865.06;;;22.35;74.38
1472;BME280;963;42.644;23.336;2023-07-31T04:05:54;93858.44;;;22.27;74.56
1472;BME280;963;42.644;23.336;2023-07-31T04:08:21;93859.94;;;22.28;74.56
1472;BME280;963;42.644;23.336;2023-07-31T04:10:46;93872.22;;;22.38;74.43
1472;BME280;963;42.644;23.336;2023-07-31T04:13:12;93859.28;;;22.14;74.76
1472;BME280;963;42.644;23.336;2023-07-31T04:15:38;93878.91;;;22.33;74.71
1472;BME280;963;42.644;23.336;2023-07-31T04:18:04;93899.34;;;22.40;74.45
1472;BME280;963;42.644;23.336;2023-07-31T04:20:29;93892.03;;;22.40;74.85
1472;BME280;963;42.644;23.336;2023-07-31T04:22:54;93878.81;;;22.46;73.92
1472;BME280;963;42.644;23.336;2023-07-31T04:25:20;93889.84;;;22.48;73.89
1472;BME280;963;42.644;23.336;2023-07-31T04:27:45;93877.38;;;22.54;73.22
1472;BME280;963;42.644;23.336;2023-07-31T04:30:11;93878.84;;;22.55;73.17
1472;BME280;963;42.644;23.336;2023-07-31T04:32:36;93872.13;;;22.51;73.02
1472;BME280;963;42.644;23.336;2023-07-31T04:35:02;93878.25;;;22.51;73.05
1472;BME280;963;42.644;23.336;2023-07-31T04:37:27;93885.94;;;22.40;72.28
1472;BME280;963;42.644;23.336;2023-07-31T04:39:53;93875.38;;;22.45;72.13
1472;BME280;963;42.644;23.336;2023-07-31T04:42:18;93880.00;;;22.45;72.57
1472;BME280;963;42.644;23.336;2023-07-31T04:44:44;93881.22;;;22.53;72.00
1472;BME280;963;42.644;23.336;2023-07-31T04:47:09;93874.81;;;22.51;72.07
1472;BME280;963;42.644;23.336;2023-07-31T04:49:34;93883.03;;;22.56;71.85
1472;BME280;963;42.644;23.336;2023-07-31T04:52:00;93872.88;;;22.51;72.14
1472;BME280;963;42.644;23.336;2023-07-31T04:54:25;93872.28;;;22.47;70.74
1472;BME280;963;42.644;23.336;2023-07-31T04:56:50;93882.72;;;22.54;71.32
1472;BME280;963;42.644;23.336;2023-07-31T04:59:17;93882.38;;;22.43;71.18
1472;BME280;963;42.644;23.336;2023-07-31T05:01:42;93869.28;;;22.45;71.22
1472;BME280;963;42.644;23.336;2023-07-31T05:04:12;93871.81;;;22.49;71.39
1472;BME280;963;42.644;23.336;2023-07-31T05:06:38;93886.31;;;22.60;71.28
1472;BME280;963;42.644;23.336;2023-07-31T05:09:03;93873.97;;;22.63;70.73
1472;BME280;963;42.644;23.336;2023-07-31T05:11:28;93876.22;;;22.64;70.68
1472;BME280;963;42.644;23.336;2023-07-31T05:13:54;93862.81;;;22.64;70.66
1472;BME280;963;42.644;23.336;2023-07-31T05:16:19;93861.19;;;22.67;70.88
1472;BME280;963;42.644;23.336;2023-07-31T05:18:44;93867.84;;;22.84;70.79
1472;BME280;963;42.644;23.336;2023-07-31T05:21:10;93873.97;;;22.85;70.49
1472;BME280;963;42.644;23.336;2023-07-31T05:23:35;93868.16;;;22.95;69.51
1472;BME280;963;42.644;23.336;2023-07-31T05:26:07;93865.03;;;22.97;69.41
1472;BME280;963;42.644;23.336;2023-07-31T05:28:35;93870.56;;;23.02;69.29
1472;BME280;963;42.644;23.336;2023-07-31T05:31:02;93857.91;;;23.03;68.78
1472;BME280;963;42.644;23.336;2023-07-31T05:33:27;93859.97;;;22.99;68.70
1472;BME280;963;42.644;23.336;2023-07-31T05:35:53;93870.47;;;23.15;69.01
1472;BME280;963;42.644;23.336;2023-07-31T05:38:18;93867.63;;;23.10;68.96
1472;BME280;963;42.644;23.336;2023-07-31T05:40:44;93868.53;;;23.06;68.63
1472;BME280;963;42.644;23.336;2023-07-31T05:43:09;93880.00;;;23.07;68.07
1472;BME280;963;42.644;23.336;2023-07-31T05:45:35;93866.88;;;23.09;68.92
1472;BME280;963;42.644;23.336;2023-07-31T05:48:00;93869.59;;;23.18;68.42
1472;BME280;963;42.644;23.336;2023-07-31T05:50:26;93855.28;;;23.12;67.41
1472;BME280;963;42.644;23.336;2023-07-31T05:52:51;93867.50;;;23.22;67.25
1472;BME280;963;42.644;23.336;2023-07-31T05:55:17;93874.81;;;23.22;66.97
1472;BME280;963;42.644;23.336;2023-07-31T05:57:42;93868.88;;;23.36;65.95
1472;BME280;963;42.644;23.336;2023-07-31T06:00:08;93880.91;;;23.13;65.90
1472;BME280;963;42.644;23.336;2023-07-31T06:02:34;93872.59;;;23.29;65.62
1472;BME280;963;42.644;23.336;2023-07-31T06:05:02;93874.09;;;23.39;64.80
1472;BME280;963;42.644;23.336;2023-07-31T06:07:29;93869.63;;;23.36;64.82
1472;BME280;963;42.644;23.336;2023-07-31T06:09:54;93885.47;;;23.53;64.63
1472;BME280;963;42.644;23.336;2023-07-31T06:12:20;93870.56;;;23.52;63.83
1472;BME280;963;42.644;23.336;2023-07-31T06:14:46;93873.53;;;23.54;63.53
1472;BME280;963;42.644;23.336;2023-07-31T06:17:11;93886.09;;;23.66;63.19
1472;BME280;963;42.644;23.336;2023-07-31T06:19:36;93893.72;;;23.58;62.93
1472;BME280;963;42.644;23.336;2023-07-31T06:22:02;93893.75;;;23.27;63.46
1472;BME280;963;42.644;23.336;2023-07-31T06:24:28;93906.31;;;23.39;63.21
1472;BME280;963;42.644;23.336;2023-07-31T06:26:53;93883.53;;;23.53;61.55
1472;BME280;963;42.644;23.336;2023-07-31T06:29:19;93889.38;;;23.61;60.42
1472;BME280;963;42.644;23.336;2023-07-31T06:31:44;93887.00;;;23.63;60.40
1472;BME280;963;42.644;23.336;2023-07-31T06:34:09;93880.44;;;23.82;60.17
1472;BME280;963;42.644;23.336;2023-07-31T06:36:35;93874.78;;;23.89;60.17
1472;BME280;963;42.644;23.336;2023-07-31T06:39:00;93870.16;;;23.90;59.47
1472;BME280;963;42.644;23.336;2023-07-31T06:41:26;93873.13;;;23.74;60.04
1472;BME280;963;42.644;23.336;2023-07-31T06:43:51;93880.44;;;23.91;59.47
1472;BME280;963;42.644;23.336;2023-07-31T06:46:16;93880.59;;;23.88;59.53
1472;BME280;963;42.644;23.336;2023-07-31T06:48:42;93882.53;;;23.96;59.83
1472;BME280;963;42.644;23.336;2023-07-31T06:51:07;93888.66;;;23.97;59.34
1472;BME280;963;42.644;23.336;2023-07-31T06:53:33;93905.38;;;23.92;59.90
1472;BME280;963;42.644;23.336;2023-07-31T06:55:58;93886.72;;;23.97;59.99
1472;BME280;963;42.644;23.336;2023-07-31T06:58:23;93904.31;;;23.98;60.30
1472;BME280;963;42.644;23.336;2023-07-31T07:00:49;93888.50;;;24.00;60.23
1472;BME280;963;42.644;23.336;2023-07-31T07:03:18;93896.09;;;24.02;59.75
1472;BME280;963;42.644;23.336;2023-07-31T07:05:43;93908.50;;;24.18;60.29
1472;BME280;963;42.644;23.336;2023-07-31T07:08:09;93885.19;;;24.24;59.76
1472;BME280;963;42.644;23.336;2023-07-31T07:10:34;93925.41;;;24.27;59.26
1472;BME280;963;42.644;23.336;2023-07-31T07:13:00;93879.53;;;24.31;59.09
1472;BME280;963;42.644;23.336;2023-07-31T07:15:25;93883.25;;;24.34;58.90
1472;BME280;963;42.644;23.336;2023-07-31T07:17:50;93890.28;;;24.31;58.76
1472;BME280;963;42.644;23.336;2023-07-31T07:20:16;93890.75;;;24.29;58.22
1472;BME280;963;42.644;23.336;2023-07-31T07:22:41;93893.28;;;24.33;58.51
1472;BME280;963;42.644;23.336;2023-07-31T07:25:08;93873.69;;;24.42;57.84
1472;BME280;963;42.644;23.336;2023-07-31T07:27:34;93890.56;;;24.24;57.95
1472;BME280;963;42.644;23.336;2023-07-31T07:30:00;93891.47;;;24.39;57.18
1472;BME280;963;42.644;23.336;2023-07-31T07:32:25;93895.63;;;24.49;57.07
1472;BME280;963;42.644;23.336;2023-07-31T07:34:51;93903.97;;;24.51;56.94
1472;BME280;963;42.644;23.336;2023-07-31T07:37:16;93893.28;;;24.33;57.33
1472;BME280;963;42.644;23.336;2023-07-31T07:39:42;93887.75;;;24.37;57.11
1472;BME280;963;42.644;23.336;2023-07-31T07:42:07;93896.38;;;24.41;57.26
1472;BME280;963;42.644;23.336;2023-07-31T07:44:32;93893.84;;;24.46;57.07
1472;BME280;963;42.644;23.336;2023-07-31T07:46:58;93882.47;;;24.51;56.73
1472;BME280;963;42.644;23.336;2023-07-31T07:49:23;93889.78;;;24.51;56.47
1472;BME280;963;42.644;23.336;2023-07-31T07:51:49;93899.66;;;24.54;56.63
1472;BME280;963;42.644;23.336;2023-07-31T07:54:15;93898.00;;;24.66;55.97
1472;BME280;963;42.644;23.336;2023-07-31T07:56:42;93900.94;;;24.77;55.46
1472;BME280;963;42.644;23.336;2023-07-31T07:59:07;93903.53;;;24.62;55.76
1472;BME280;963;42.644;23.336;2023-07-31T08:01:32;93907.25;;;24.65;55.88
1472;BME280;963;42.644;23.336;2023-07-31T08:03:58;93906.31;;;24.77;55.95
1472;BME280;963;42.644;23.336;2023-07-31T08:06:23;93904.03;;;24.84;55.89
1472;BME280;963;42.644;23.336;2023-07-31T08:08:49;93912.56;;;24.83;55.51
1472;BME280;963;42.644;23.336;2023-07-31T08:11:15;93897.41;;;24.52;56.42
1472;BME280;963;42.644;23.336;2023-07-31T08:13:40;93907.84;;;24.69;55.71
1472;BME280;963;42.644;23.336;2023-07-31T08:16:05;93907.81;;;24.78;55.52
1472;BME280;963;42.644;23.336;2023-07-31T08:18:31;93907.97;;;24.74;55.49
1472;BME280;963;42.644;23.336;2023-07-31T08:20:57;93911.06;;;24.82;54.62
1472;BME280;963;42.644;23.336;2023-07-31T08:23:23;93908.97;;;24.95;54.37
1472;BME280;963;42.644;23.336;2023-07-31T08:25:48;93894.31;;;24.87;54.44
1472;BME280;963;42.644;23.336;2023-07-31T08:28:16;93905.16;;;25.11;54.05
1472;BME280;963;42.644;23.336;2023-07-31T08:30:41;93906.66;;;25.12;53.64
1472;BME280;963;42.644;23.336;2023-07-31T08:33:07;93903.16;;;25.20;53.86
1472;BME280;963;42.644;23.336;2023-07-31T08:35:33;93908.09;;;25.22;53.40
1472;BME280;963;42.644;23.336;2023-07-31T08:37:59;93909.72;;;25.29;52.84
1472;BME280;963;42.644;23.336;2023-07-31T08:40:24;93891.75;;;25.35;52.95
1472;BME280;963;42.644;23.336;2023-07-31T08:42:54;93925.50;;;25.45;52.70
1472;BME280;963;42.644;23.336;2023-07-31T08:45:20;93904.00;;;25.36;52.69
1472;BME280;963;42.644;23.336;2023-07-31T08:47:50;93909.00;;;25.52;52.33
1472;BME280;963;42.644;23.336;2023-07-31T08:50:18;93911.47;;;25.41;52.59
1472;BME280;963;42.644;23.336;2023-07-31T08:52:45;93920.63;;;25.58;52.07
1472;BME280;963;42.644;23.336;2023-07-31T08:55:10;93897.56;;;25.66;51.64
1472;BME280;963;42.644;23.336;2023-07-31T08:57:37;93908.00;;;25.73;51.53
1472;BME280;963;42.644;23.336;2023-07-31T09:00:08;93901.63;;;25.85;51.74
1472;BME280;963;42.644;23.336;2023-07-31T09:02:54;93917.03;;;25.85;51.33
1472;BME280;963;42.644;23.336;2023-07-31T09:05:21;93908.66;;;25.83;50.42
1472;BME280;963;42.644;23.336;2023-07-31T09:07:48;93909.59;;;25.80;50.59
1472;BME280;963;42.644;23.336;2023-07-31T09:10:14;93905.50;;;25.84;50.40
1472;BME280;963;42.644;23.336;2023-07-31T09:12:40;93898.91;;;25.85;50.40
1472;BME280;963;42.644;23.336;2023-07-31T09:15:06;93902.25;;;25.80;50.26
1472;BME280;963;42.644;23.336;2023-07-31T09:17:35;93897.16;;;25.82;50.21
1472;BME280;963;42.644;23.336;2023-07-31T09:20:21;93897.34;;;25.94;49.53
1472;BME280;963;42.644;23.336;2023-07-31T09:22:47;93893.44;;;25.95;49.22
1472;BME280;963;42.644;23.336;2023-07-31T09:25:21;93896.66;;;26.08;48.93
1472;BME280;963;42.644;23.336;2023-07-31T09:27:47;93894.44;;;25.82;49.14
1472;BME280;963;42.644;23.336;2023-07-31T09:30:14;93886.81;;;26.05;48.98
1472;BME280;963;42.644;23.336;2023-07-31T09:32:39;93894.88;;;26.05;48.69
1472;BME280;963;42.644;23.336;2023-07-31T09:35:32;93872.13;;;26.06;49.44
1472;BME280;963;42.644;23.336;2023-07-31T09:37:59;93878.81;;;26.10;49.66
1472;BME280;963;42.644;23.336;2023-07-31T09:40:39;93880.94;;;26.21;50.06
1472;BME280;963;42.644;23.336;2023-07-31T09:43:25;93872.22;;;26.26;49.76
1472;BME280;963;42.644;23.336;2023-07-31T09:45:55;93891.31;;;26.37;49.47
1472;BME280;963;42.644;23.336;2023-07-31T09:48:23;93867.25;;;26.48;48.83
1472;BME280;963;42.644;23.336;2023-07-31T09:50:50;93883.31;;;26.58;49.67
1472;BME280;963;42.644;23.336;2023-07-31T09:53:16;93864.44;;;26.58;49.07
1472;BME280;963;42.644;23.336;2023-07-31T09:55:42;93878.22;;;26.45;49.47
1472;BME280;963;42.644;23.336;2023-07-31T09:58:12;93863.59;;;26.52;48.81
1472;BME280;963;42.644;23.336;2023-07-31T10:00:38;93874.19;;;26.70;48.57
1472;BME280;963;42.644;23.336;2023-07-31T10:03:10;93864.88;;;26.71;48.41
1472;BME280;963;42.644;23.336;2023-07-31T10:05:42;93853.53;;;26.67;48.00
1472;BME280;963;42.644;23.336;2023-07-31T10:08:14;93855.28;;;26.70;47.81
1472;BME280;963;42.644;23.336;2023-07-31T10:10:45;93843.00;;;26.69;48.03
1472;BME280;963;42.644;23.336;2023-07-31T10:13:11;93855.00;;;26.83;47.77
1472;BME280;963;42.644;23.336;2023-07-31T10:15:38;93856.22;;;26.82;47.26
1472;BME280;963;42.644;23.336;2023-07-31T10:18:05;93859.00;;;26.87;47.21
1472;BME280;963;42.644;23.336;2023-07-31T10:20:31;93874.81;;;26.94;47.29
1472;BME280;963;42.644;23.336;2023-07-31T10:22:57;93866.53;;;26.98;47.47
1472;BME280;963;42.644;23.336;2023-07-31T10:25:25;93851.97;;;27.10;46.78
1472;BME280;963;42.644;23.336;2023-07-31T10:27:52;93849.38;;;27.16;46.19
1472;BME280;963;42.644;23.336;2023-07-31T10:30:22;93855.88;;;27.24;46.32
1472;BME280;963;42.644;23.336;2023-07-31T10:32:51;93865.72;;;27.27;45.98
1472;BME280;963;42.644;23.336;2023-07-31T10:35:17;93846.88;;;27.32;45.84
1472;BME280;963;42.644;23.336;2023-07-31T10:37:43;93843.56;;;27.23;45.84
1472;BME280;963;42.644;23.336;2023-07-31T10:42:37;93850.06;;;27.31;45.30
1472;BME280;963;42.644;23.336;2023-07-31T10:45:07;93850.75;;;27.46;45.79
1472;BME280;963;42.644;23.336;2023-07-31T10:52:45;93830.34;;;27.86;44.18
1472;BME280;963;42.644;23.336;2023-07-31T10:57:47;93837.00;;;28.11;43.12
1472;BME280;963;42.644;23.336;2023-07-31T11:05:44;93812.13;;;28.32;42.24
1472;BME280;963;42.644;23.336;2023-07-31T11:10:47;93813.41;;;28.37;42.11
1472;BME280;963;42.644;23.336;2023-07-31T11:13:13;93825.84;;;28.55;41.52
1472;BME280;963;42.644;23.336;2023-07-31T11:15:39;93811.59;;;28.60;40.94
1472;BME280;963;42.644;23.336;2023-07-31T11:18:05;93807.25;;;28.68;40.78
1472;BME280;963;42.644;23.336;2023-07-31T11:20:35;93805.69;;;28.61;41.26
1472;BME280;963;42.644;23.336;2023-07-31T11:23:08;93827.44;;;28.67;41.09
1472;BME280;963;42.644;23.336;2023-07-31T11:25:34;93821.81;;;28.45;40.20
1472;BME280;963;42.644;23.336;2023-07-31T11:28:07;93815.78;;;28.61;40.51
1472;BME280;963;42.644;23.336;2023-07-31T11:30:34;93824.97;;;28.69;39.47
1472;BME280;963;42.644;23.336;2023-07-31T11:33:02;93804.56;;;28.74;39.12
1472;BME280;963;42.644;23.336;2023-07-31T11:35:29;93810.38;;;28.92;40.27
1472;BME280;963;42.644;23.336;2023-07-31T11:37:55;93805.94;;;28.89;40.10
1472;BME280;963;42.644;23.336;2023-07-31T11:40:20;93811.59;;;28.91;40.04
1472;BME280;963;42.644;23.336;2023-07-31T11:42:46;93803.47;;;28.91;39.56
1472;BME280;963;42.644;23.336;2023-07-31T11:45:11;93800.50;;;28.89;40.66
1472;BME280;963;42.644;23.336;2023-07-31T11:47:37;93796.84;;;28.92;40.29
1472;BME280;963;42.644;23.336;2023-07-31T11:50:04;93802.00;;;28.90;41.08
1472;BME280;963;42.644;23.336;2023-07-31T11:52:43;93809.88;;;28.88;40.86
1472;BME280;963;42.644;23.336;2023-07-31T11:55:10;93799.03;;;28.88;41.02
1472;BME280;963;42.644;23.336;2023-07-31T11:57:38;93799.63;;;29.04;40.73
1472;BME280;963;42.644;23.336;2023-07-31T12:00:06;93802.63;;;29.11;40.62
1472;BME280;963;42.644;23.336;2023-07-31T12:02:32;93797.44;;;29.08;39.48
1472;BME280;963;42.644;23.336;2023-07-31T12:04:57;93795.78;;;29.27;39.97
1472;BME280;963;42.644;23.336;2023-07-31T12:07:24;93808.63;;;29.32;40.00
1472;BME280;963;42.644;23.336;2023-07-31T12:09:56;93802.22;;;29.35;39.87
1472;BME280;963;42.644;23.336;2023-07-31T12:12:23;93781.13;;;29.50;39.68
1472;BME280;963;42.644;23.336;2023-07-31T12:14:48;93786.84;;;29.69;39.20
1472;BME280;963;42.644;23.336;2023-07-31T12:17:15;93777.28;;;29.74;39.55
1472;BME280;963;42.644;23.336;2023-07-31T12:19:41;93783.69;;;29.93;38.97
1472;BME280;963;42.644;23.336;2023-07-31T12:22:16;93797.50;;;29.78;39.26
1472;BME280;963;42.644;23.336;2023-07-31T12:24:43;93774.06;;;29.81;39.81
1472;BME280;963;42.644;23.336;2023-07-31T12:27:15;93794.53;;;29.82;39.68
1472;BME280;963;42.644;23.336;2023-07-31T12:29:43;93768.91;;;29.94;40.24
1472;BME280;963;42.644;23.336;2023-07-31T12:32:23;93777.56;;;30.04;40.73
1472;BME280;963;42.644;23.336;2023-07-31T12:34:53;93781.72;;;29.77;40.62
1472;BME280;963;42.644;23.336;2023-07-31T12:37:20;93773.59;;;29.82;40.46
1472;BME280;963;42.644;23.336;2023-07-31T12:39:46;93774.81;;;29.87;40.08
1472;BME280;963;42.644;23.336;2023-07-31T12:42:11;93784.94;;;29.98;39.77
1472;BME280;963;42.644;23.336;2023-07-31T12:44:37;93780.50;;;30.00;39.48
1472;BME280;963;42.644;23.336;2023-07-31T12:47:02;93785.69;;;29.98;39.18
1472;BME280;963;42.644;23.336;2023-07-31T12:49:29;93782.22;;;29.92;39.41
1472;BME280;963;42.644;23.336;2023-07-31T12:51:54;93762.25;;;29.84;38.74
1472;BME280;963;42.644;23.336;2023-07-31T12:54:20;93764.97;;;29.84;38.64
1472;BME280;963;42.644;23.336;2023-07-31T12:56:45;93760.50;;;29.81;38.79
1472;BME280;963;42.644;23.336;2023-07-31T12:59:10;93751.66;;;29.86;38.55
1472;BME280;963;42.644;23.336;2023-07-31T13:01:36;93759.28;;;29.87;38.34
1472;BME280;963;42.644;23.336;2023-07-31T13:04:01;93757.06;;;29.80;38.82
1472;BME280;963;42.644;23.336;2023-07-31T13:06:27;93754.03;;;29.50;38.95
1472;BME280;963;42.644;23.336;2023-07-31T13:08:52;93743.19;;;29.62;39.55
1472;BME280;963;42.644;23.336;2023-07-31T13:11:17;93755.28;;;29.66;39.03
1472;BME280;963;42.644;23.336;2023-07-31T13:13:43;93752.59;;;29.72;38.83
1472;BME280;963;42.644;23.336;2023-07-31T13:16:08;93756.56;;;29.82;39.51
1472;BME280;963;42.644;23.336;2023-07-31T13:18:34;93751.41;;;29.95;39.32
1472;BME280;963;42.644;23.336;2023-07-31T13:20:59;93744.50;;;29.83;38.82
1472;BME280;963;42.644;23.336;2023-07-31T13:23:24;93756.06;;;29.78;39.76
1472;BME280;963;42.644;23.336;2023-07-31T13:25:50;93755.03;;;29.70;38.57
1472;BME280;963;42.644;23.336;2023-07-31T13:28:15;93773.53;;;29.66;39.75
1472;BME280;963;42.644;23.336;2023-07-31T13:30:40;93762.53;;;29.32;39.41
1472;BME280;963;42.644;23.336;2023-07-31T13:33:06;93747.75;;;29.27;39.27
1472;BME280;963;42.644;23.336;2023-07-31T13:35:31;93764.47;;;29.20;39.52
1472;BME280;963;42.644;23.336;2023-07-31T13:37:57;93741.34;;;29.31;38.79
1472;BME280;963;42.644;23.336;2023-07-31T13:40:22;93752.75;;;29.40;38.32
1472;BME280;963;42.644;23.336;2023-07-31T13:42:48;93752.56;;;29.55;38.54